Time;durP1;ratioP1;P1;durP2;ratioP2;P2;SDS_P1;SDS_P2;PMS_P1;PMS_P2;Temp;Humidity;BMP_temperature;BMP_pressure;BME280_temperature;BME280_humidity;BME280_pressure;Samples;Min_cycle;Max_cycle;Signal;HPM_P1;HPM_P2
2022/08/11 00:08:05;;;;;;;6.30;3.67;;;;;;;18.45;54.05;101013.56;30147887;28;97534;-60
2022/08/11 00:23:08;;;;;;;11.00;4.53;;;;;;;18.56;54.38;101023.81;30147484;28;96727;-60
2022/08/11 00:38:10;;;;;;;10.70;5.13;;;;;;;18.27;54.61;101014.97;30145433;29;97413;-60
2022/08/11 00:53:25;;;;;;;7.90;4.70;;;;;;;17.86;55.33;101013.06;30144630;29;97106;-60
2022/08/11 01:08:40;;;;;;;7.03;4.33;;;;;;;17.61;55.81;101014.59;30143349;28;96791;-60
2022/08/11 01:24:21;;;;;;;5.80;4.13;;;;;;;17.35;56.41;101005.28;30140798;28;96962;-60
2022/08/11 01:39:32;;;;;;;6.10;4.13;;;;;;;16.94;57.03;101005.94;30140104;28;97120;-59
2022/08/11 01:55:03;;;;;;;7.97;4.10;;;;;;;16.04;58.03;101009.63;30139408;28;96571;-60
2022/08/11 02:26:19;;;;;;;11.27;5.13;;;;;;;14.78;61.57;101011.13;30079250;28;97637;-60
2022/08/11 02:57:19;;;;;;;9.60;4.80;;;;;;;14.26;63.45;101004.50;30154941;29;97163;-61
2022/08/11 03:28:42;;;;;;;11.50;4.50;;;;;;;13.89;64.46;101014.84;30135070;28;97076;-60
2022/08/11 03:44:05;;;;;;;9.27;4.80;;;;;;;13.79;65.05;101015.06;30126729;28;99199;-60
2022/08/11 03:59:20;;;;;;;;;;;;;;;13.75;65.30;101012.88;30135408;28;97723;-61
2022/08/11 04:30:17;;;;;;;11.60;5.40;;;;;;;14.40;66.09;101011.81;30012934;29;96920;-61
2022/08/11 04:45:50;;;;;;;11.87;6.13;;;;;;;14.82;65.94;101025.84;30021937;29;97251;-61
2022/08/11 06:02:57;;;;;;;10.50;3.20;;;;;;;18.61;57.41;101061.78;30020658;29;97075;-61
2022/08/11 06:18:01;;;;;;;6.60;2.73;;;;;;;19.55;55.47;101064.66;30015942;29;96795;-61
2022/08/11 06:33:05;;;;;;;9.40;2.77;;;;;;;20.42;53.47;101069.09;30017373;29;96680;-61
2022/08/11 06:48:15;;;;;;;7.50;2.90;;;;;;;21.34;51.36;101055.25;30014613;29;96761;-61
2022/08/11 07:03:19;;;;;;;5.23;2.30;;;;;;;22.31;48.72;101054.72;30014637;29;96741;-61
2022/08/11 07:33:56;;;;;;;8.47;2.67;;;;;;;24.15;44.63;101035.16;30028106;29;96841;-61
2022/08/11 08:19:37;;;;;;;5.20;2.30;;;;;;;27.06;38.37;101026.38;30019739;29;97302;-60
2022/08/11 08:34:39;;;;;;;4.43;1.70;;;;;;;27.71;35.68;101012.66;30021173;29;97562;-63
2022/08/11 08:49:54;;;;;;;1.97;1.53;;;;;;;27.97;34.67;101010.84;30023561;29;97687;-61
2022/08/11 09:04:55;;;;;;;2.70;1.20;;;;;;;29.03;32.83;100985.06;30022725;29;97136;-61
2022/08/11 09:20:07;;;;;;;3.47;1.63;;;;;;;30.68;29.35;100984.50;30015986;29;97298;-60
2022/08/11 09:35:08;;;;;;;3.03;1.30;;;;;;;32.25;26.85;100992.53;30013743;29;97273;-61
2022/08/11 09:50:10;;;;;;;3.27;1.60;;;;;;;32.25;26.18;100992.53;30009849;29;97580;-61
2022/08/11 10:20:36;;;;;;;3.00;1.10;;;;;;;33.49;24.21;100954.63;30006955;29;97180;-60
2022/08/11 10:35:37;;;;;;;3.13;1.20;;;;;;;33.34;23.63;100945.53;30005758;29;96925;-61
2022/08/11 11:06:07;;;;;;;1.43;0.80;;;;;;;32.46;24.12;100920.56;30023750;29;97301;-61
2022/08/11 11:21:14;;;;;;;2.73;0.87;;;;;;;32.54;22.61;100914.34;30025840;29;97238;-61
2022/08/11 11:36:22;;;;;;;2.83;0.97;;;;;;;33.03;22.45;100893.63;30024732;29;97003;-61
2022/08/11 11:51:25;;;;;;;1.50;0.83;;;;;;;32.42;21.58;100883.69;30021928;29;97165;-61
2022/08/11 12:06:26;;;;;;;1.83;0.70;;;;;;;32.08;21.48;100860.72;30089057;29;97554;-61
2022/08/11 12:21:28;;;;;;;6.80;1.20;;;;;;;32.72;22.05;100846.50;30140431;28;97090;-61
2022/08/11 12:36:34;;;;;;;1.00;0.90;;;;;;;32.39;22.10;100841.78;30140954;28;96909;-61
2022/08/11 12:51:57;;;;;;;2.33;1.08;;;;;;;32.23;22.40;100819.19;30093189;28;96759;-61
2022/08/11 13:06:57;;;;;;;2.43;1.07;;;;;;;31.56;23.15;100811.06;30023850;29;97469;-61
2022/08/11 13:21:59;;;;;;;3.53;1.17;;;;;;;31.73;23.56;100794.06;30022193;29;96820;-61
2022/08/11 13:37:03;;;;;;;2.43;0.80;;;;;;;31.81;22.98;100774.09;30017468;29;97638;-61
2022/08/11 13:52:06;;;;;;;4.87;1.20;;;;;;;31.62;23.56;100771.38;30021156;29;97644;-61
2022/08/11 14:07:08;;;;;;;2.13;1.20;;;;;;;31.01;22.92;100740.75;30017676;29;98224;-60
2022/08/11 14:22:12;;;;;;;3.40;0.70;;;;;;;30.22;23.63;100727.31;30016970;29;96796;-61
2022/08/11 14:37:17;;;;;;;2.87;1.20;;;;;;;30.03;24.13;100714.31;30032333;29;97243;-60
2022/08/11 14:52:19;;;;;;;2.50;1.07;;;;;;;30.31;24.06;100711.84;30018034;29;97197;-61
2022/08/11 15:07:28;;;;;;;3.67;0.90;;;;;;;29.29;25.12;100724.41;29939562;29;97536;-60
2022/08/11 15:37:55;;;;;;;2.03;1.10;;;;;;;27.80;27.16;100706.38;30018620;29;97132;-60
2022/08/11 15:53:01;;;;;;;2.50;1.20;;;;;;;27.18;28.06;100711.72;30022021;29;97061;-61
2022/08/11 16:08:03;;;;;;;2.50;1.17;;;;;;;26.47;28.89;100713.00;30018328;29;97082;-63
2022/08/11 16:23:06;;;;;;;4.23;1.03;;;;;;;26.47;28.77;100702.09;30017551;29;96831;-61
2022/08/11 16:53:29;;;;;;;1.47;0.90;;;;;;;26.32;29.08;100716.47;30013661;29;97382;-61
2022/08/11 17:24:03;;;;;;;4.37;2.30;;;;;;;24.38;35.51;100738.53;30020951;29;97215;-61
2022/08/11 17:39:04;;;;;;;3.20;1.33;;;;;;;23.17;38.26;100744.00;30018898;29;97914;-60
